createdAt,value
2018-03-20T00:01:28.161Z,13.80
2018-03-20T00:03:55.680Z,12.60
2018-03-20T00:06:23.989Z,14.10
2018-03-20T00:08:51.508Z,11.73
2018-03-20T00:11:19.053Z,12.57
2018-03-20T00:13:46.572Z,13.63
2018-03-20T00:16:14.880Z,11.20
2018-03-20T00:18:42.405Z,11.65
2018-03-20T00:21:09.973Z,11.20
2018-03-20T00:23:37.496Z,11.83
2018-03-20T00:26:05.016Z,13.27
2018-03-20T00:28:33.329Z,12.07
2018-03-20T00:31:00.858Z,11.35
2018-03-20T00:33:28.406Z,10.70
2018-03-20T00:35:55.941Z,11.23
2018-03-20T00:38:23.484Z,10.83
2018-03-20T00:40:52.045Z,10.10
2018-03-20T00:43:19.584Z,11.43
2018-03-20T00:45:47.156Z,10.60
2018-03-20T00:48:14.702Z,11.03
2018-03-20T00:50:42.233Z,10.67
2018-03-20T00:53:09.782Z,10.53
2018-03-20T00:55:37.303Z,10.43
2018-03-20T00:58:04.845Z,11.85
2018-03-20T01:00:32.369Z,12.93
2018-03-20T01:03:00.691Z,10.70
2018-03-20T01:05:28.221Z,11.30
2018-03-20T01:07:55.757Z,10.80
2018-03-20T01:10:23.272Z,11.17
2018-03-20T01:12:52.534Z,10.87
2018-03-20T01:15:20.825Z,10.93
2018-03-20T01:17:48.372Z,11.80
2018-03-20T01:20:15.897Z,10.70
2018-03-20T01:22:44.209Z,11.90
2018-03-20T01:25:11.740Z,11.07
2018-03-20T01:27:39.280Z,10.40
2018-03-20T01:30:06.818Z,11.40
2018-03-20T01:32:34.386Z,11.40
2018-03-20T01:35:01.909Z,11.48
2018-03-20T01:37:29.432Z,10.97
2018-03-20T01:39:57.745Z,11.05
2018-03-20T01:42:25.263Z,10.23
2018-03-20T01:44:53.842Z,10.75
2018-03-20T01:47:21.365Z,10.20
2018-03-20T01:49:48.911Z,10.80
2018-03-20T01:52:16.432Z,10.97
2018-03-20T01:54:44.742Z,12.20
2018-03-20T01:57:12.294Z,11.70
2018-03-20T01:59:39.833Z,10.97
2018-03-20T02:02:07.364Z,9.87
2018-03-20T02:04:34.907Z,10.63
2018-03-20T02:07:02.430Z,11.30
2018-03-20T02:09:29.968Z,11.67
2018-03-20T02:11:58.268Z,11.80
2018-03-20T02:14:25.872Z,10.97
2018-03-20T02:16:54.560Z,12.50
2018-03-20T02:19:22.097Z,10.10
2018-03-20T02:21:49.620Z,10.93
2018-03-20T02:24:17.934Z,10.97
2018-03-20T02:26:45.448Z,9.80
2018-03-20T02:29:12.985Z,10.57
2018-03-20T02:31:41.271Z,11.60
2018-03-20T02:34:08.808Z,10.00
2018-03-20T02:36:36.335Z,9.30
2018-03-20T02:39:04.675Z,9.40
2018-03-20T02:41:32.978Z,9.03
2018-03-20T02:44:00.518Z,9.30
2018-03-20T02:46:28.046Z,8.80
2018-03-20T02:48:55.569Z,8.95
2018-03-20T02:51:23.881Z,8.67
2018-03-20T02:53:51.412Z,8.00
2018-03-20T02:56:18.957Z,8.47
2018-03-20T02:58:46.487Z,8.17
2018-03-20T03:01:14.033Z,7.83
2018-03-20T03:03:41.566Z,7.97
2018-03-20T03:06:09.879Z,6.90
2018-03-20T03:08:37.389Z,7.50
2018-03-20T03:11:04.964Z,7.50
2018-03-20T03:13:32.488Z,7.83
2018-03-20T03:16:00.057Z,8.30
2018-03-20T03:18:27.571Z,8.40
2018-03-20T03:20:56.358Z,8.20
2018-03-20T03:23:23.882Z,8.80
2018-03-20T03:25:51.418Z,9.00
2018-03-20T03:28:19.213Z,8.43
2018-03-20T03:30:46.765Z,8.98
2018-03-20T03:33:14.276Z,8.70
2018-03-20T03:35:41.808Z,8.40
2018-03-20T03:38:09.389Z,8.77
2018-03-20T03:40:36.929Z,9.60
2018-03-20T03:43:04.453Z,10.33
2018-03-20T03:45:31.993Z,8.20
2018-03-20T03:47:59.518Z,8.87
2018-03-20T03:50:27.813Z,7.97
2018-03-20T03:52:55.344Z,7.07
2018-03-20T03:55:22.878Z,7.40
2018-03-20T03:57:50.401Z,7.40
2018-03-20T04:00:18.714Z,7.63
2018-03-20T04:02:46.237Z,7.63
2018-03-20T04:05:13.762Z,7.40
2018-03-20T04:07:42.069Z,8.00
2018-03-20T04:10:11.219Z,7.93
2018-03-20T04:12:38.749Z,8.20
2018-03-20T04:15:07.041Z,7.60
2018-03-20T04:17:34.631Z,7.70
2018-03-20T04:20:02.170Z,7.37
2018-03-20T04:22:29.708Z,7.73
2018-03-20T04:24:57.226Z,7.57
2018-03-20T04:27:24.759Z,7.87
2018-03-20T04:29:52.287Z,7.68
2018-03-20T04:32:19.825Z,7.80
2018-03-20T04:34:47.414Z,7.70
2018-03-20T04:37:14.957Z,7.13
2018-03-20T04:39:42.485Z,6.40
2018-03-20T04:42:10.012Z,7.07
2018-03-20T04:44:37.536Z,7.70
2018-03-20T04:47:05.850Z,7.75
2018-03-20T04:49:33.360Z,7.90
2018-03-20T04:52:00.897Z,7.78
2018-03-20T04:54:28.426Z,7.17
2018-03-20T04:56:56.724Z,7.47
2018-03-20T04:59:24.245Z,8.00
2018-03-20T05:01:51.786Z,7.73
2018-03-20T05:04:20.078Z,7.17
2018-03-20T05:06:47.614Z,7.10
2018-03-20T05:09:15.138Z,7.90
2018-03-20T05:11:42.700Z,7.83
2018-03-20T05:14:10.217Z,7.77
2018-03-20T05:16:38.506Z,8.00
2018-03-20T05:19:11.793Z,9.00
2018-03-20T05:21:41.253Z,8.37
2018-03-20T05:24:09.554Z,9.60
2018-03-20T05:26:37.101Z,8.50
2018-03-20T05:29:04.645Z,10.17
2018-03-20T05:31:32.170Z,9.70
2018-03-20T05:33:59.758Z,10.43
2018-03-20T05:36:27.295Z,10.27
2018-03-20T05:38:54.845Z,10.77
2018-03-20T05:41:22.373Z,10.80
2018-03-20T05:43:49.918Z,11.10
2018-03-20T05:46:23.265Z,10.70
2018-03-20T05:48:54.234Z,10.50
2018-03-20T05:51:27.549Z,9.10
2018-03-20T05:53:55.847Z,9.77
2018-03-20T05:56:23.374Z,10.60
2018-03-20T05:58:50.922Z,9.80
2018-03-20T06:01:18.450Z,9.90
2018-03-20T06:03:45.991Z,10.10
2018-03-20T06:06:14.280Z,9.67
2018-03-20T06:08:41.821Z,9.23
2018-03-20T06:11:09.364Z,8.40
2018-03-20T06:13:36.930Z,9.53
2018-03-20T06:16:04.460Z,9.87
2018-03-20T06:18:31.991Z,9.77
2018-03-20T06:21:00.209Z,8.75
2018-03-20T06:23:28.501Z,10.23
2018-03-20T06:25:56.061Z,10.20
2018-03-20T06:28:23.586Z,9.03
2018-03-20T06:30:51.886Z,8.60
2018-03-20T06:33:19.414Z,10.38
2018-03-20T06:35:46.953Z,8.63
2018-03-20T06:38:14.473Z,9.23
2018-03-20T06:40:42.764Z,7.20
2018-03-20T06:43:10.300Z,9.10
2018-03-20T06:45:37.870Z,7.83
2018-03-20T06:48:05.387Z,8.37
2018-03-20T06:50:32.942Z,7.50
2018-03-20T06:53:00.825Z,8.20
2018-03-20T06:55:28.373Z,9.57
2018-03-20T06:57:55.896Z,8.95
2018-03-20T07:00:23.507Z,8.73
2018-03-20T07:02:51.045Z,9.70
2018-03-20T07:05:18.589Z,7.87
2018-03-20T07:07:46.889Z,8.80
2018-03-20T07:10:14.425Z,10.20
2018-03-20T07:12:41.942Z,10.10
2018-03-20T07:15:10.242Z,8.93
2018-03-20T07:17:37.756Z,10.10
2018-03-20T07:20:05.438Z,9.10
2018-03-20T07:22:32.992Z,9.30
2018-03-20T07:25:01.434Z,9.37
2018-03-20T07:27:28.964Z,10.30
2018-03-20T07:29:56.490Z,11.57
2018-03-20T07:32:24.797Z,10.53
2018-03-20T07:34:52.321Z,11.20
2018-03-20T07:37:19.861Z,9.77
2018-03-20T07:39:47.376Z,10.60
2018-03-20T07:42:15.002Z,11.40
2018-03-20T07:44:43.318Z,10.63
2018-03-20T07:47:10.856Z,9.98
2018-03-20T07:49:38.388Z,10.83
2018-03-20T07:52:05.925Z,10.50
2018-03-20T07:54:34.205Z,10.27
2018-03-20T07:57:02.238Z,11.12
2018-03-20T07:59:29.782Z,11.53
2018-03-20T08:01:58.090Z,10.87
2018-03-20T08:04:25.614Z,10.47
2018-03-20T08:06:53.155Z,10.70
2018-03-20T08:09:20.681Z,10.40
2018-03-20T08:11:48.978Z,11.20
2018-03-20T08:14:16.976Z,10.87
2018-03-20T08:16:44.604Z,11.67
2018-03-20T08:19:12.121Z,11.87
2018-03-20T08:21:39.658Z,11.00
2018-03-20T08:24:07.181Z,12.40
2018-03-20T08:26:34.732Z,12.23
2018-03-20T08:29:03.275Z,11.38
2018-03-20T08:31:31.563Z,12.43
2018-03-20T08:33:59.079Z,12.47
2018-03-20T08:36:27.386Z,12.20
2018-03-20T08:38:54.918Z,11.70
2018-03-20T08:41:22.446Z,12.20
2018-03-20T08:43:49.971Z,14.20
2018-03-20T08:46:18.277Z,12.80
2018-03-20T08:48:45.813Z,13.97
2018-03-20T08:51:13.338Z,13.60
2018-03-20T08:53:41.670Z,14.27
2018-03-20T08:56:09.185Z,14.43
2018-03-20T08:58:36.727Z,12.87
2018-03-20T09:01:04.254Z,14.25
2018-03-20T09:03:32.525Z,13.90
2018-03-20T09:06:00.040Z,15.00
2018-03-20T09:08:28.353Z,15.70
2018-03-20T09:10:55.883Z,15.07
2018-03-20T09:13:23.429Z,16.08
2018-03-20T09:15:50.953Z,14.60
2018-03-20T09:18:18.475Z,15.20
2018-03-20T09:20:46.786Z,15.30
2018-03-20T09:23:14.326Z,19.87
2018-03-20T09:25:41.850Z,20.70
2018-03-20T09:28:09.385Z,23.07
2018-03-20T09:30:36.903Z,23.03
2018-03-20T09:33:04.893Z,21.23
2018-03-20T09:35:32.461Z,22.70
2018-03-20T09:38:00.043Z,21.42
2018-03-20T09:40:28.341Z,21.73
2018-03-20T09:42:55.913Z,20.20
2018-03-20T09:45:23.441Z,19.93
2018-03-20T09:47:51.107Z,18.03
2018-03-20T09:50:18.631Z,18.08
2018-03-20T09:52:46.235Z,18.47
2018-03-20T09:55:14.546Z,17.67
2018-03-20T09:57:42.086Z,18.63
2018-03-20T10:00:09.660Z,19.60
2018-03-20T10:02:37.165Z,19.53
2018-03-20T10:05:05.616Z,18.90
2018-03-20T10:07:33.144Z,18.80
2018-03-20T10:10:00.704Z,18.20
2018-03-20T10:12:28.216Z,16.50
2018-03-20T10:14:56.521Z,17.35
2018-03-20T10:17:24.046Z,17.53
2018-03-20T10:19:51.581Z,15.50
2018-03-20T10:22:19.873Z,15.80
2018-03-20T10:24:47.444Z,15.20
2018-03-20T10:27:14.968Z,15.70
2018-03-20T10:29:42.510Z,15.97
2018-03-20T10:32:10.049Z,15.63
2018-03-20T10:34:37.930Z,15.00
2018-03-20T10:37:06.372Z,15.65
2018-03-20T10:39:33.900Z,15.43
2018-03-20T10:42:01.421Z,16.87
2018-03-20T10:44:29.841Z,14.90
2018-03-20T10:46:58.372Z,16.90
2018-03-20T10:49:25.928Z,15.50
2018-03-20T10:51:53.443Z,15.63
2018-03-20T10:54:21.745Z,14.83
2018-03-20T10:56:49.264Z,15.40
2018-03-20T10:59:16.800Z,18.43
2018-03-20T11:01:45.881Z,17.30
2018-03-20T11:04:14.215Z,18.10
2018-03-20T11:06:41.737Z,16.17
2018-03-20T11:09:09.265Z,15.70
2018-03-20T11:11:36.800Z,16.57
2018-03-20T11:14:04.322Z,15.57
2018-03-20T11:16:31.856Z,15.80
2018-03-20T11:19:00.141Z,16.23
2018-03-20T11:21:27.689Z,15.83
2018-03-20T11:23:55.217Z,17.20
2018-03-20T11:26:23.525Z,15.18
2018-03-20T11:28:51.079Z,15.33
2018-03-20T11:31:18.616Z,15.23
2018-03-20T11:33:46.288Z,13.20
2018-03-20T11:36:13.828Z,14.37
2018-03-20T11:38:42.860Z,16.10
2018-03-20T11:41:10.396Z,15.23
2018-03-20T11:43:37.913Z,14.43
2018-03-20T11:46:06.229Z,16.23
2018-03-20T11:48:33.755Z,15.00
2018-03-20T11:51:01.297Z,16.73
2018-03-20T11:53:28.826Z,14.90
2018-03-20T11:55:56.352Z,15.55
2018-03-20T11:58:24.638Z,14.37
2018-03-20T12:00:52.177Z,16.57
2018-03-20T12:03:19.696Z,15.73
2018-03-20T12:05:48.002Z,16.30
2018-03-20T12:08:27.483Z,16.27
2018-03-20T12:10:55.777Z,16.40
2018-03-20T12:13:23.314Z,14.77
2018-03-20T12:15:50.846Z,13.80
2018-03-20T12:18:19.138Z,13.53
2018-03-20T12:20:46.696Z,13.40
2018-03-20T12:23:14.218Z,14.87
2018-03-20T12:25:41.742Z,15.10
2018-03-20T12:28:10.150Z,14.57
2018-03-20T12:30:37.689Z,14.53
2018-03-20T12:33:05.226Z,14.00
2018-03-20T12:35:32.766Z,17.93
2018-03-20T12:38:00.319Z,15.50
2018-03-20T12:40:27.836Z,11.93
2018-03-20T12:42:55.382Z,13.03
2018-03-20T12:45:22.905Z,13.57
2018-03-20T12:47:51.213Z,11.97
2018-03-20T12:50:18.728Z,12.95
2018-03-20T12:52:46.366Z,11.57
2018-03-20T12:55:13.894Z,13.02
2018-03-20T12:57:42.229Z,12.40
2018-03-20T13:00:10.963Z,12.15
2018-03-20T13:02:38.509Z,11.50
2018-03-20T13:05:06.068Z,12.70
2018-03-20T13:07:33.601Z,11.87
2018-03-20T13:10:01.137Z,12.00
2018-03-20T13:12:28.679Z,13.57
2018-03-20T13:14:56.202Z,11.67
2018-03-20T13:17:23.941Z,13.63
2018-03-20T13:19:52.261Z,12.57
2018-03-20T13:22:19.797Z,13.03
2018-03-20T13:24:47.312Z,11.77
2018-03-20T13:27:15.613Z,12.63
2018-03-20T13:29:43.137Z,11.53
2018-03-20T13:32:11.065Z,11.40
2018-03-20T13:34:39.377Z,10.40
2018-03-20T13:37:06.895Z,12.53
2018-03-20T13:39:34.511Z,11.20
2018-03-20T13:42:02.393Z,11.43
2018-03-20T13:44:29.939Z,10.90
2018-03-20T13:46:58.365Z,13.50
2018-03-20T13:49:25.962Z,12.23
2018-03-20T13:51:53.485Z,11.90
2018-03-20T13:54:21.031Z,13.23
2018-03-20T13:56:48.557Z,13.50
2018-03-20T13:59:16.106Z,10.93
2018-03-20T14:01:43.637Z,11.77
2018-03-20T14:04:12.549Z,10.90
2018-03-20T14:06:40.151Z,9.73
2018-03-20T14:09:07.689Z,10.67
2018-03-20T14:11:35.971Z,10.40
2018-03-20T14:14:04.278Z,9.30
2018-03-20T14:16:31.787Z,8.30
2018-03-20T14:18:59.324Z,10.13
2018-03-20T14:21:26.853Z,8.80
2018-03-20T14:23:55.166Z,9.30
2018-03-20T14:26:22.672Z,8.73
2018-03-20T14:28:50.978Z,7.97
2018-03-20T14:31:18.535Z,8.00
2018-03-20T14:33:46.069Z,8.13
2018-03-20T14:36:13.592Z,7.47
2018-03-20T14:38:41.121Z,8.63
2018-03-20T14:41:08.702Z,8.23
2018-03-20T14:43:36.347Z,10.60
2018-03-20T14:46:03.851Z,9.60
2018-03-20T14:48:32.137Z,8.95
2018-03-20T14:50:59.678Z,8.70
2018-03-20T14:53:27.200Z,9.50
2018-03-20T14:55:54.732Z,8.02
2018-03-20T14:58:23.013Z,8.13
2018-03-20T15:00:50.540Z,6.57
2018-03-20T15:03:18.825Z,7.10
2018-03-20T15:05:46.472Z,5.77
2018-03-20T15:08:13.999Z,5.17
2018-03-20T15:10:42.299Z,4.87
2018-03-20T15:13:09.961Z,3.60
2018-03-20T15:15:37.584Z,5.70
2018-03-20T15:18:05.101Z,4.63
2018-03-20T15:20:32.638Z,4.00
2018-03-20T15:23:00.917Z,2.87
2018-03-20T15:25:28.478Z,3.60
2018-03-20T15:27:56.031Z,2.77
2018-03-20T15:30:23.572Z,3.00
2018-03-20T15:32:51.090Z,2.70
2018-03-20T15:35:18.621Z,2.53
2018-03-20T15:37:46.251Z,2.50
2018-03-20T15:40:14.062Z,2.40
2018-03-20T15:42:41.586Z,2.30
2018-03-20T15:45:09.126Z,3.00
2018-03-20T15:47:36.632Z,2.00
2018-03-20T15:50:04.926Z,2.00
2018-03-20T15:52:32.466Z,2.27
2018-03-20T15:54:59.997Z,2.10
2018-03-20T15:57:28.288Z,2.13
2018-03-20T15:59:55.799Z,1.97
2018-03-20T16:02:24.099Z,1.33
2018-03-20T16:04:51.622Z,1.67
2018-03-20T16:07:19.319Z,1.60
2018-03-20T16:09:46.840Z,2.40
2018-03-20T16:12:14.842Z,1.48
2018-03-20T16:14:42.358Z,1.93
2018-03-20T16:17:09.906Z,1.65
2018-03-20T16:19:37.421Z,2.10
2018-03-20T16:22:04.986Z,3.10
2018-03-20T16:24:32.494Z,3.10
2018-03-20T16:27:00.026Z,1.83
2018-03-20T16:29:27.553Z,1.63
2018-03-20T16:31:55.086Z,2.20
2018-03-20T16:34:22.604Z,2.60
2018-03-20T16:36:50.145Z,3.10
2018-03-20T16:39:17.660Z,3.33
2018-03-20T16:41:45.202Z,2.90
2018-03-20T16:44:12.746Z,2.63
2018-03-20T16:46:40.293Z,2.90
2018-03-20T16:49:07.821Z,2.60
2018-03-20T16:51:36.141Z,3.57
2018-03-20T16:54:03.658Z,2.53
2018-03-20T16:56:31.192Z,3.83
2018-03-20T16:58:58.722Z,5.05
2018-03-20T17:01:26.238Z,2.50
2018-03-20T17:03:53.764Z,2.60
2018-03-20T17:06:21.286Z,2.20
2018-03-20T17:08:48.840Z,2.62
2018-03-20T17:11:16.362Z,2.20
2018-03-20T17:13:43.897Z,3.20
2018-03-20T17:16:11.419Z,2.27
2018-03-20T17:18:38.944Z,3.17
2018-03-20T17:21:07.230Z,2.30
2018-03-20T17:23:34.777Z,2.30
2018-03-20T17:26:02.321Z,2.40
2018-03-20T17:28:29.879Z,2.27
2018-03-20T17:30:57.440Z,1.80
2018-03-20T17:33:25.000Z,2.23
2018-03-20T17:35:52.476Z,2.83
2018-03-20T17:38:20.773Z,2.00
2018-03-20T17:40:48.291Z,1.77
2018-03-20T17:43:17.501Z,2.70
2018-03-20T17:45:45.022Z,2.20
2018-03-20T17:48:13.327Z,2.37
2018-03-20T17:50:40.853Z,1.80
2018-03-20T17:53:08.381Z,2.77
2018-03-20T17:55:35.902Z,4.13
2018-03-20T17:58:04.209Z,5.60
2018-03-20T18:00:31.740Z,4.07
2018-03-20T18:02:59.288Z,3.43
2018-03-20T18:05:26.859Z,2.85
2018-03-20T18:07:54.356Z,2.30
2018-03-20T18:10:21.896Z,2.58
2018-03-20T18:12:50.184Z,2.20
2018-03-20T18:15:17.951Z,2.47
2018-03-20T18:17:45.478Z,4.73
2018-03-20T18:20:13.013Z,3.67
2018-03-20T18:22:40.586Z,5.63
2018-03-20T18:25:08.111Z,3.13
2018-03-20T18:27:35.696Z,2.60
2018-03-20T18:30:03.240Z,3.10
2018-03-20T18:32:30.759Z,2.80
2018-03-20T18:34:58.297Z,2.80
2018-03-20T18:37:25.870Z,3.20
2018-03-20T18:39:53.430Z,2.60
2018-03-20T18:42:20.929Z,2.80
2018-03-20T18:44:48.466Z,2.50
2018-03-20T18:47:15.989Z,3.47
2018-03-20T18:49:44.376Z,4.33
2018-03-20T18:52:11.930Z,2.80
2018-03-20T18:54:39.664Z,4.30
2018-03-20T18:57:08.022Z,3.50
2018-03-20T18:59:35.596Z,2.90
2018-03-20T19:02:03.113Z,2.93
2018-03-20T19:04:30.625Z,3.15
2018-03-20T19:06:58.924Z,2.73
2018-03-20T19:09:26.447Z,2.20
2018-03-20T19:11:53.981Z,2.10
2018-03-20T19:14:22.270Z,2.80
2018-03-20T19:16:49.804Z,2.72
2018-03-20T19:19:17.326Z,3.20
2018-03-20T19:21:45.626Z,4.70
2018-03-20T19:24:13.144Z,3.20
2018-03-20T19:26:41.502Z,4.20
2018-03-20T19:29:11.625Z,4.57
2018-03-20T19:31:39.325Z,3.00
2018-03-20T19:34:06.857Z,3.23
2018-03-20T19:36:34.379Z,3.50
2018-03-20T19:39:01.899Z,3.60
2018-03-20T19:41:29.438Z,3.22
2018-03-20T19:43:56.948Z,3.37
2018-03-20T19:46:24.486Z,3.33
2018-03-20T19:48:52.023Z,3.70
2018-03-20T19:51:20.438Z,3.00
2018-03-20T19:53:47.974Z,3.17
2018-03-20T19:56:16.326Z,2.70
2018-03-20T19:58:44.644Z,3.13
2018-03-20T20:01:12.165Z,4.60
2018-03-20T20:03:40.613Z,2.87
2018-03-20T20:06:08.893Z,2.80
2018-03-20T20:08:37.173Z,3.13
2018-03-20T20:11:04.726Z,3.00
2018-03-20T20:13:32.266Z,7.30
2018-03-20T20:15:59.789Z,5.53
2018-03-20T20:18:27.320Z,4.60
2018-03-20T20:20:54.832Z,8.90
2018-03-20T20:23:22.374Z,3.10
2018-03-20T20:25:50.657Z,3.77
2018-03-20T20:28:19.180Z,3.70
2018-03-20T20:30:46.709Z,3.83
2018-03-20T20:33:14.250Z,3.80
2018-03-20T20:35:41.783Z,3.97
2018-03-20T20:38:09.321Z,4.00
2018-03-20T20:40:36.843Z,3.78
2018-03-20T20:43:05.254Z,6.37
2018-03-20T20:45:32.799Z,5.17
2018-03-20T20:48:00.334Z,8.70
2018-03-20T20:50:27.884Z,3.67
2018-03-20T20:52:55.446Z,5.10
2018-03-20T20:55:22.971Z,3.40
2018-03-20T20:57:50.493Z,3.30
2018-03-20T21:00:18.070Z,2.17
2018-03-20T21:02:45.584Z,3.10
2018-03-20T21:05:13.121Z,2.90
2018-03-20T21:07:40.642Z,3.27
2018-03-20T21:10:08.936Z,2.83
2018-03-20T21:12:36.465Z,3.03
2018-03-20T21:15:03.999Z,3.00
2018-03-20T21:17:32.280Z,2.50
2018-03-20T21:19:59.821Z,3.10
2018-03-20T21:22:27.349Z,2.60
2018-03-20T21:24:55.708Z,3.10
2018-03-20T21:27:23.253Z,3.80
2018-03-20T21:29:51.553Z,2.07
2018-03-20T21:32:19.068Z,2.80
2018-03-20T21:34:46.717Z,3.30
2018-03-20T21:37:14.261Z,2.93
2018-03-20T21:39:41.807Z,2.77
2018-03-20T21:42:09.389Z,3.05
2018-03-20T21:44:36.938Z,2.40
2018-03-20T21:47:04.457Z,2.47
2018-03-20T21:49:32.122Z,2.60
2018-03-20T21:51:59.663Z,2.53
2018-03-20T21:54:27.211Z,2.60
2018-03-20T21:56:54.754Z,2.10
2018-03-20T21:59:22.615Z,2.90
2018-03-20T22:01:50.161Z,2.73
2018-03-20T22:04:17.790Z,2.93
2018-03-20T22:06:45.329Z,3.00
2018-03-20T22:09:12.865Z,2.50
2018-03-20T22:11:40.404Z,2.53
2018-03-20T22:14:09.019Z,3.30
2018-03-20T22:16:36.551Z,2.65
2018-03-20T22:19:04.115Z,2.50
2018-03-20T22:21:31.702Z,3.30
2018-03-20T22:23:59.229Z,2.87
2018-03-20T22:26:27.546Z,3.10
2018-03-20T22:28:55.061Z,3.10
2018-03-20T22:31:23.528Z,3.17
2018-03-20T22:33:51.058Z,3.30
2018-03-20T22:36:18.606Z,3.30
2018-03-20T22:38:46.207Z,3.60
2018-03-20T22:41:13.740Z,2.83
2018-03-20T22:43:41.295Z,3.03
2018-03-20T22:46:08.816Z,3.10
2018-03-20T22:48:36.338Z,3.50
2018-03-20T22:51:03.869Z,2.90
2018-03-20T22:53:31.396Z,2.73
2018-03-20T22:55:59.718Z,3.60
2018-03-20T22:58:27.539Z,3.00
2018-03-20T23:00:55.093Z,3.53
2018-03-20T23:03:22.626Z,4.13
2018-03-20T23:05:50.199Z,3.03
2018-03-20T23:08:17.729Z,3.95
2018-03-20T23:10:45.267Z,3.43
2018-03-20T23:13:12.807Z,3.37
2018-03-20T23:15:40.319Z,3.80
2018-03-20T23:18:08.622Z,4.05
2018-03-20T23:20:36.142Z,3.87
2018-03-20T23:23:03.681Z,3.50
2018-03-20T23:25:31.974Z,3.90
2018-03-20T23:27:59.538Z,3.70
2018-03-20T23:30:27.148Z,3.78
2018-03-20T23:32:54.721Z,3.17
2018-03-20T23:35:22.241Z,3.17
2018-03-20T23:37:49.768Z,3.60
2018-03-20T23:40:17.288Z,3.70
2018-03-20T23:42:44.825Z,4.10
2018-03-20T23:45:12.339Z,5.20
2018-03-20T23:47:39.883Z,5.13
2018-03-20T23:50:07.425Z,5.47
2018-03-20T23:52:35.280Z,4.87
2018-03-20T23:55:03.566Z,4.70
2018-03-20T23:57:31.190Z,4.73
2018-03-20T23:59:58.754Z,4.50
